sensor_id;sensor_type;location;lat;lon;timestamp;pressure;altitude;pressure_sealevel;temperature;humidity
11487;BME280;10510;47.942;9.442;2023-02-28T00:00:46;94851.59;;;-3.94;100.00
11487;BME280;10510;47.942;9.442;2023-02-28T00:02:46;94848.22;;;-3.95;100.00
11487;BME280;10510;47.942;9.442;2023-02-28T00:04:47;94849.88;;;-3.94;100.00
11487;BME280;10510;47.942;9.442;2023-02-28T00:06:52;94846.41;;;-3.93;100.00
11487;BME280;10510;47.942;9.442;2023-02-28T00:08:53;94853.16;;;-3.92;100.00
11487;BME280;10510;47.942;9.442;2023-02-28T00:10:53;94848.97;;;-3.93;100.00
11487;BME280;10510;47.942;9.442;2023-02-28T00:12:55;94848.22;;;-3.95;100.00
11487;BME280;10510;47.942;9.442;2023-02-28T00:14:58;94849.03;;;-3.94;100.00
11487;BME280;10510;47.942;9.442;2023-02-28T00:16:59;94847.41;;;-3.95;100.00
11487;BME280;10510;47.942;9.442;2023-02-28T00:18:59;94855.06;;;-3.95;100.00
11487;BME280;10510;47.942;9.442;2023-02-28T00:20:59;94848.34;;;-3.96;100.00
11487;BME280;10510;47.942;9.442;2023-02-28T00:22:59;94849.97;;;-3.95;100.00
11487;BME280;10510;47.942;9.442;2023-02-28T00:25:00;94855.06;;;-3.95;100.00
11487;BME280;10510;47.942;9.442;2023-02-28T00:27:00;94853.34;;;-3.95;100.00
11487;BME280;10510;47.942;9.442;2023-02-28T00:29:00;94852.50;;;-3.95;100.00
11487;BME280;10510;47.942;9.442;2023-02-28T00:31:00;94849.16;;;-3.96;100.00
11487;BME280;10510;47.942;9.442;2023-02-28T00:33:01;94847.50;;;-3.97;100.00
11487;BME280;10510;47.942;9.442;2023-02-28T00:35:02;94848.50;;;-3.99;100.00
11487;BME280;10510;47.942;9.442;2023-02-28T00:37:08;94852.69;;;-3.98;100.00
11487;BME280;10510;47.942;9.442;2023-02-28T00:39:09;94860.38;;;-3.98;100.00
11487;BME280;10510;47.942;9.442;2023-02-28T00:41:09;94853.50;;;-3.98;100.00
11487;BME280;10510;47.942;9.442;2023-02-28T00:43:09;94859.44;;;-3.97;100.00
11487;BME280;10510;47.942;9.442;2023-02-28T00:45:10;94853.50;;;-3.98;100.00
11487;BME280;10510;47.942;9.442;2023-02-28T00:47:10;94850.88;;;-3.96;100.00
11487;BME280;10510;47.942;9.442;2023-02-28T00:49:10;94854.34;;;-3.97;100.00
11487;BME280;10510;47.942;9.442;2023-02-28T00:51:11;94850.16;;;-3.98;100.00
11487;BME280;10510;47.942;9.442;2023-02-28T00:53:11;94848.41;;;-3.98;100.00
11487;BME280;10510;47.942;9.442;2023-02-28T00:55:11;94845.84;;;-3.98;100.00
11487;BME280;10510;47.942;9.442;2023-02-28T00:57:11;94850.06;;;-3.97;100.00
11487;BME280;10510;47.942;9.442;2023-02-28T00:59:16;94851.78;;;-3.97;100.00
11487;BME280;10510;47.942;9.442;2023-02-28T01:01:16;94845.78;;;-3.96;100.00
11487;BME280;10510;47.942;9.442;2023-02-28T01:03:18;94845.78;;;-3.96;100.00
11487;BME280;10510;47.942;9.442;2023-02-28T01:05:18;94842.47;;;-3.98;100.00
11487;BME280;10510;47.942;9.442;2023-02-28T01:07:19;94839.94;;;-3.98;100.00
11487;BME280;10510;47.942;9.442;2023-02-28T01:09:19;94842.41;;;-3.97;100.00
11487;BME280;10510;47.942;9.442;2023-02-28T01:11:19;94844.13;;;-3.97;100.00
11487;BME280;10510;47.942;9.442;2023-02-28T01:13:20;94835.63;;;-3.98;100.00
11487;BME280;10510;47.942;9.442;2023-02-28T01:15:20;94836.38;;;-3.96;100.00
11487;BME280;10510;47.942;9.442;2023-02-28T01:17:20;94839.00;;;-3.97;100.00
11487;BME280;10510;47.942;9.442;2023-02-28T01:19:21;94837.19;;;-3.95;100.00
11487;BME280;10510;47.942;9.442;2023-02-28T01:21:21;94833.00;;;-3.96;100.00
11487;BME280;10510;47.942;9.442;2023-02-28T01:23:23;94829.72;;;-3.98;100.00
11487;BME280;10510;47.942;9.442;2023-02-28T01:25:23;94833.09;;;-3.98;100.00
11487;BME280;10510;47.942;9.442;2023-02-28T01:27:24;94833.00;;;-3.96;100.00
11487;BME280;10510;47.942;9.442;2023-02-28T01:29:24;94829.53;;;-3.95;100.00
11487;BME280;10510;47.942;9.442;2023-02-28T01:31:25;94826.97;;;-3.95;100.00
11487;BME280;10510;47.942;9.442;2023-02-28T01:33:25;94833.00;;;-3.96;100.00
11487;BME280;10510;47.942;9.442;2023-02-28T01:35:26;94827.91;;;-3.96;100.00
11487;BME280;10510;47.942;9.442;2023-02-28T01:37:26;94835.56;;;-3.96;100.00
11487;BME280;10510;47.942;9.442;2023-02-28T01:39:27;94827.16;;;-3.98;100.00
11487;BME280;10510;47.942;9.442;2023-02-28T01:41:30;94824.59;;;-3.98;100.00
11487;BME280;10510;47.942;9.442;2023-02-28T01:43:52;94822.06;;;-3.98;100.00
11487;BME280;10510;47.942;9.442;2023-02-28T01:45:54;94816.94;;;-3.98;100.00
11487;BME280;10510;47.942;9.442;2023-02-28T01:48:06;94820.44;;;-3.99;100.00
11487;BME280;10510;47.942;9.442;2023-02-28T01:50:18;94818.75;;;-4.00;100.00
11487;BME280;10510;47.942;9.442;2023-02-28T01:52:19;94818.06;;;-4.02;100.00
11487;BME280;10510;47.942;9.442;2023-02-28T01:54:24;94819.69;;;-4.01;100.00
11487;BME280;10510;47.942;9.442;2023-02-28T01:56:29;94830.81;;;-4.02;100.00
11487;BME280;10510;47.942;9.442;2023-02-28T01:58:34;94829.91;;;-4.01;100.00
11487;BME280;10510;47.942;9.442;2023-02-28T02:00:35;94828.28;;;-4.02;100.00
11487;BME280;10510;47.942;9.442;2023-02-28T02:02:36;94828.28;;;-4.02;100.00
11487;BME280;10510;47.942;9.442;2023-02-28T02:04:41;94819.69;;;-4.01;100.00
11487;BME280;10510;47.942;9.442;2023-02-28T02:06:44;94831.63;;;-4.02;100.00
11487;BME280;10510;47.942;9.442;2023-02-28T02:08:45;94827.44;;;-4.03;100.00
11487;BME280;10510;47.942;9.442;2023-02-28T02:10:48;94825.59;;;-4.01;100.00
11487;BME280;10510;47.942;9.442;2023-02-28T02:13:05;94826.41;;;-4.00;100.00
11487;BME280;10510;47.942;9.442;2023-02-28T02:15:12;94818.06;;;-4.02;100.00
11487;BME280;10510;47.942;9.442;2023-02-28T02:26:52;94812.03;;;-4.01;100.00
11487;BME280;10510;47.942;9.442;2023-02-28T02:29:18;94806.09;;;-4.02;100.00
11487;BME280;10510;47.942;9.442;2023-02-28T02:31:51;94807.84;;;-4.02;100.00
11487;BME280;10510;47.942;9.442;2023-02-28T02:39:07;94802.72;;;-4.02;100.00
11487;BME280;10510;47.942;9.442;2023-02-28T02:43:58;94802.72;;;-4.02;100.00
11487;BME280;10510;47.942;9.442;2023-02-28T02:46:07;94807.03;;;-4.03;100.00
11487;BME280;10510;47.942;9.442;2023-02-28T02:48:13;94804.47;;;-4.03;100.00
11487;BME280;10510;47.942;9.442;2023-02-28T02:50:21;94807.84;;;-4.02;100.00
11487;BME280;10510;47.942;9.442;2023-02-28T02:52:34;94802.63;;;-4.01;100.00
11487;BME280;10510;47.942;9.442;2023-02-28T02:54:39;94805.19;;;-4.01;100.00
11487;BME280;10510;47.942;9.442;2023-02-28T02:56:42;94804.38;;;-4.01;100.00
11487;BME280;10510;47.942;9.442;2023-02-28T02:58:43;94805.19;;;-4.01;100.00
11487;BME280;10510;47.942;9.442;2023-02-28T03:00:50;94806.72;;;-3.98;100.00
11487;BME280;10510;47.942;9.442;2023-02-28T03:02:54;94806.72;;;-3.98;100.00
11487;BME280;10510;47.942;9.442;2023-02-28T03:04:59;94811.03;;;-3.99;100.00
11487;BME280;10510;47.942;9.442;2023-02-28T03:07:00;94812.75;;;-3.99;100.00
11487;BME280;10510;47.942;9.442;2023-02-28T03:09:01;94812.75;;;-3.99;100.00
11487;BME280;10510;47.942;9.442;2023-02-28T03:11:06;94826.34;;;-3.99;100.00
11487;BME280;10510;47.942;9.442;2023-02-28T03:13:40;94821.25;;;-3.99;100.00
11487;BME280;10510;47.942;9.442;2023-02-28T03:15:58;94828.91;;;-3.99;100.00
11487;BME280;10510;47.942;9.442;2023-02-28T03:18:10;94821.25;;;-3.99;100.00
11487;BME280;10510;47.942;9.442;2023-02-28T03:23:21;94820.44;;;-3.99;100.00
11487;BME280;10510;47.942;9.442;2023-02-28T03:28:05;94816.13;;;-3.99;100.00
11487;BME280;10510;47.942;9.442;2023-02-28T03:32:32;94814.41;;;-3.98;100.00
11487;BME280;10510;47.942;9.442;2023-02-28T03:34:38;94811.03;;;-3.99;100.00
11487;BME280;10510;47.942;9.442;2023-02-28T03:36:42;94815.13;;;-3.96;100.00
11487;BME280;10510;47.942;9.442;2023-02-28T03:38:53;94809.91;;;-3.95;100.00
11487;BME280;10510;47.942;9.442;2023-02-28T03:41:01;94812.47;;;-3.95;100.00
11487;BME280;10510;47.942;9.442;2023-02-28T03:43:12;94811.66;;;-3.95;100.00
11487;BME280;10510;47.942;9.442;2023-02-28T03:45:21;94810.03;;;-3.96;100.00
11487;BME280;10510;47.942;9.442;2023-02-28T03:47:27;94804.00;;;-3.95;100.00
11487;BME280;10510;47.942;9.442;2023-02-28T03:49:37;94805.72;;;-3.96;100.00
11487;BME280;10510;47.942;9.442;2023-02-28T03:51:40;94808.38;;;-3.97;100.00
11487;BME280;10510;47.942;9.442;2023-02-28T03:53:47;94807.47;;;-3.96;100.00
11487;BME280;10510;47.942;9.442;2023-02-28T03:55:59;94805.72;;;-3.96;100.00
11487;BME280;10510;47.942;9.442;2023-02-28T03:58:05;94809.22;;;-3.97;100.00
11487;BME280;10510;47.942;9.442;2023-02-28T04:00:15;94802.44;;;-3.98;100.00
11487;BME280;10510;47.942;9.442;2023-02-28T04:02:18;94807.56;;;-3.98;100.00
11487;BME280;10510;47.942;9.442;2023-02-28T04:04:19;94809.22;;;-3.97;100.00
11487;BME280;10510;47.942;9.442;2023-02-28T04:06:21;94807.56;;;-3.98;100.00
11487;BME280;10510;47.942;9.442;2023-02-28T04:08:22;94803.38;;;-3.99;100.00
11487;BME280;10510;47.942;9.442;2023-02-28T04:10:22;94805.81;;;-3.97;100.00
11487;BME280;10510;47.942;9.442;2023-02-28T04:12:23;94810.03;;;-3.96;100.00
11487;BME280;10510;47.942;9.442;2023-02-28T04:14:23;94810.03;;;-3.96;100.00
11487;BME280;10510;47.942;9.442;2023-02-28T04:16:24;94820.25;;;-3.96;100.00
11487;BME280;10510;47.942;9.442;2023-02-28T04:18:24;94825.34;;;-3.96;100.00
11487;BME280;10510;47.942;9.442;2023-02-28T04:20:25;94814.31;;;-3.97;100.00
11487;BME280;10510;47.942;9.442;2023-02-28T04:22:25;94822.78;;;-3.96;100.00
11487;BME280;10510;47.942;9.442;2023-02-28T04:24:28;94816.75;;;-3.95;100.00
11487;BME280;10510;47.942;9.442;2023-02-28T04:26:34;94814.84;;;-3.92;100.00
11487;BME280;10510;47.942;9.442;2023-02-28T04:28:36;94832.72;;;-3.92;100.00
11487;BME280;10510;47.942;9.442;2023-02-28T04:30:37;94819.06;;;-3.91;100.00
11487;BME280;10510;47.942;9.442;2023-02-28T04:32:38;94817.41;;;-3.92;100.00
11487;BME280;10510;47.942;9.442;2023-02-28T04:34:38;94823.44;;;-3.93;100.00
11487;BME280;10510;47.942;9.442;2023-02-28T04:36:39;94819.13;;;-3.92;100.00
11487;BME280;10510;47.942;9.442;2023-02-28T04:38:40;94811.47;;;-3.92;100.00
11487;BME280;10510;47.942;9.442;2023-02-28T04:40:40;94814.03;;;-3.92;100.00
11487;BME280;10510;47.942;9.442;2023-02-28T04:42:41;94820.88;;;-3.93;100.00
11487;BME280;10510;47.942;9.442;2023-02-28T04:44:41;94822.50;;;-3.92;100.00
11487;BME280;10510;47.942;9.442;2023-02-28T04:46:42;94811.47;;;-3.92;100.00
11487;BME280;10510;47.942;9.442;2023-02-28T04:48:42;94816.59;;;-3.92;100.00
11487;BME280;10510;47.942;9.442;2023-02-28T04:50:44;94820.88;;;-3.93;100.00
11487;BME280;10510;47.942;9.442;2023-02-28T04:52:44;94837.94;;;-3.93;100.00
11487;BME280;10510;47.942;9.442;2023-02-28T04:54:44;94832.81;;;-3.93;100.00
11487;BME280;10510;47.942;9.442;2023-02-28T04:56:45;94829.47;;;-3.94;100.00
11487;BME280;10510;47.942;9.442;2023-02-28T04:58:45;94832.00;;;-3.94;100.00
11487;BME280;10510;47.942;9.442;2023-02-28T05:00:45;94831.16;;;-3.94;100.00
11487;BME280;10510;47.942;9.442;2023-02-28T05:02:46;94836.28;;;-3.94;100.00
11487;BME280;10510;47.942;9.442;2023-02-28T05:04:46;94831.09;;;-3.93;100.00
11487;BME280;10510;47.942;9.442;2023-02-28T05:06:46;94830.28;;;-3.93;100.00
11487;BME280;10510;47.942;9.442;2023-02-28T05:08:47;94835.28;;;-3.92;100.00
11487;BME280;10510;47.942;9.442;2023-02-28T05:10:47;94834.47;;;-3.92;100.00
11487;BME280;10510;47.942;9.442;2023-02-28T05:12:48;94844.59;;;-3.91;100.00
11487;BME280;10510;47.942;9.442;2023-02-28T05:14:48;94834.38;;;-3.91;100.00
11487;BME280;10510;47.942;9.442;2023-02-28T05:16:48;94837.00;;;-3.92;100.00
11487;BME280;10510;47.942;9.442;2023-02-28T05:18:49;94839.56;;;-3.92;100.00
11487;BME280;10510;47.942;9.442;2023-02-28T05:20:49;94834.56;;;-3.94;100.00
11487;BME280;10510;47.942;9.442;2023-02-28T05:22:49;94833.72;;;-3.94;100.00
11487;BME280;10510;47.942;9.442;2023-02-28T05:24:49;94834.56;;;-3.94;100.00
11487;BME280;10510;47.942;9.442;2023-02-28T05:26:52;94840.56;;;-3.95;100.00
11487;BME280;10510;47.942;9.442;2023-02-28T05:28:53;94838.13;;;-3.96;100.00
11487;BME280;10510;47.942;9.442;2023-02-28T05:30:53;94836.38;;;-3.96;100.00
11487;BME280;10510;47.942;9.442;2023-02-28T05:32:54;94845.03;;;-3.98;100.00
11487;BME280;10510;47.942;9.442;2023-02-28T05:34:54;94850.25;;;-4.00;100.00
11487;BME280;10510;47.942;9.442;2023-02-28T05:36:54;94846.97;;;-4.02;100.00
11487;BME280;10510;47.942;9.442;2023-02-28T05:38:54;94858.00;;;-4.01;100.00
11487;BME280;10510;47.942;9.442;2023-02-28T05:40:55;94850.31;;;-4.01;100.00
11487;BME280;10510;47.942;9.442;2023-02-28T05:42:56;94846.97;;;-4.02;100.00
11487;BME280;10510;47.942;9.442;2023-02-28T05:44:56;94858.09;;;-4.03;100.00
11487;BME280;10510;47.942;9.442;2023-02-28T05:46:56;94858.25;;;-4.06;100.00
11487;BME280;10510;47.942;9.442;2023-02-28T05:48:57;94858.34;;;-4.07;100.00
11487;BME280;10510;47.942;9.442;2023-02-28T05:51:00;94860.97;;;-4.09;100.00
11487;BME280;10510;47.942;9.442;2023-02-28T05:53:00;94860.28;;;-4.11;100.00
11487;BME280;10510;47.942;9.442;2023-02-28T05:55:01;94864.44;;;-4.10;100.00
11487;BME280;10510;47.942;9.442;2023-02-28T05:57:01;94859.34;;;-4.10;100.00
11487;BME280;10510;47.942;9.442;2023-02-28T05:59:01;94869.47;;;-4.08;100.00
11487;BME280;10510;47.942;9.442;2023-02-28T06:01:20;94854.25;;;-4.10;100.00
11487;BME280;10510;47.942;9.442;2023-02-28T06:03:21;94855.06;;;-4.09;100.00
11487;BME280;10510;47.942;9.442;2023-02-28T06:05:21;94855.16;;;-4.11;100.00
11487;BME280;10510;47.942;9.442;2023-02-28T06:07:21;94858.72;;;-4.14;100.00
11487;BME280;10510;47.942;9.442;2023-02-28T06:09:22;94857.16;;;-4.16;100.00
11487;BME280;10510;47.942;9.442;2023-02-28T06:11:23;94862.34;;;-4.18;100.00
11487;BME280;10510;47.942;9.442;2023-02-28T06:13:26;94861.50;;;-4.18;100.00
11487;BME280;10510;47.942;9.442;2023-02-28T06:15:27;94870.84;;;-4.17;100.00
11487;BME280;10510;47.942;9.442;2023-02-28T06:17:27;94870.91;;;-4.19;100.00
11487;BME280;10510;47.942;9.442;2023-02-28T06:19:27;94871.72;;;-4.18;100.00
11487;BME280;10510;47.942;9.442;2023-02-28T06:21:29;94883.59;;;-4.17;100.00
11487;BME280;10510;47.942;9.442;2023-02-28T06:23:30;94889.53;;;-4.17;100.00
11487;BME280;10510;47.942;9.442;2023-02-28T06:25:30;94890.34;;;-4.16;100.00
11487;BME280;10510;47.942;9.442;2023-02-28T06:27:32;94889.41;;;-4.15;100.00
11487;BME280;10510;47.942;9.442;2023-02-28T06:29:33;94892.81;;;-4.15;100.00
11487;BME280;10510;47.942;9.442;2023-02-28T06:31:34;94894.53;;;-4.15;100.00
11487;BME280;10510;47.942;9.442;2023-02-28T06:33:35;94890.28;;;-4.15;100.00
11487;BME280;10510;47.942;9.442;2023-02-28T06:35:36;94889.34;;;-4.14;100.00
11487;BME280;10510;47.942;9.442;2023-02-28T06:37:36;94897.81;;;-4.13;100.00
11487;BME280;10510;47.942;9.442;2023-02-28T06:39:37;94899.56;;;-4.14;100.00
11487;BME280;10510;47.942;9.442;2023-02-28T06:41:37;94904.66;;;-4.14;100.00
11487;BME280;10510;47.942;9.442;2023-02-28T06:43:40;94908.84;;;-4.13;100.00
11487;BME280;10510;47.942;9.442;2023-02-28T06:45:42;94906.31;;;-4.13;100.00
11487;BME280;10510;47.942;9.442;2023-02-28T06:47:43;94904.75;;;-4.15;100.00
11487;BME280;10510;47.942;9.442;2023-02-28T06:49:43;94904.84;;;-4.17;100.00
11487;BME280;10510;47.942;9.442;2023-02-28T06:51:45;94908.22;;;-4.16;100.00
11487;BME280;10510;47.942;9.442;2023-02-28T06:53:46;94908.13;;;-4.15;100.00
11487;BME280;10510;47.942;9.442;2023-02-28T06:55:46;94911.69;;;-4.17;100.00
11487;BME280;10510;47.942;9.442;2023-02-28T06:57:46;94910.13;;;-4.20;100.00
11487;BME280;10510;47.942;9.442;2023-02-28T06:59:47;94909.31;;;-4.20;100.00
11487;BME280;10510;47.942;9.442;2023-02-28T07:01:47;94921.06;;;-4.18;100.00
11487;BME280;10510;47.942;9.442;2023-02-28T07:03:47;94915.88;;;-4.16;100.00
11487;BME280;10510;47.942;9.442;2023-02-28T07:05:52;94925.09;;;-4.14;100.00
11487;BME280;10510;47.942;9.442;2023-02-28T07:07:52;94923.28;;;-4.12;100.00
11487;BME280;10510;47.942;9.442;2023-02-28T07:09:52;94930.03;;;-4.11;100.00
11487;BME280;10510;47.942;9.442;2023-02-28T07:11:53;94928.22;;;-4.08;100.00
11487;BME280;10510;47.942;9.442;2023-02-28T07:13:54;94934.13;;;-4.08;100.00
11487;BME280;10510;47.942;9.442;2023-02-28T07:15:57;94942.63;;;-4.07;100.00
11487;BME280;10510;47.942;9.442;2023-02-28T07:17:57;94937.56;;;-4.09;100.00
11487;BME280;10510;47.942;9.442;2023-02-28T07:19:57;94937.69;;;-4.11;100.00
11487;BME280;10510;47.942;9.442;2023-02-28T07:21:58;94940.13;;;-4.09;100.00
11487;BME280;10510;47.942;9.442;2023-02-28T07:23:58;94938.44;;;-4.08;100.00
11487;BME280;10510;47.942;9.442;2023-02-28T07:25:58;94936.59;;;-4.06;100.00
11487;BME280;10510;47.942;9.442;2023-02-28T07:27:58;94941.69;;;-4.06;100.00
11487;BME280;10510;47.942;9.442;2023-02-28T07:29:59;94948.47;;;-4.05;100.00
11487;BME280;10510;47.942;9.442;2023-02-28T07:32:01;94943.34;;;-4.05;100.00
11487;BME280;10510;47.942;9.442;2023-02-28T07:34:01;94943.34;;;-4.05;100.00
11487;BME280;10510;47.942;9.442;2023-02-28T07:36:11;94942.38;;;-4.03;100.00
11487;BME280;10510;47.942;9.442;2023-02-28T07:38:15;94940.63;;;-4.02;100.00
11487;BME280;10510;47.942;9.442;2023-02-28T07:40:16;94941.34;;;-4.00;100.00
11487;BME280;10510;47.942;9.442;2023-02-28T07:42:17;94954.09;;;-4.00;100.00
11487;BME280;10510;47.942;9.442;2023-02-28T07:44:18;94948.09;;;-3.99;100.00
11487;BME280;10510;47.942;9.442;2023-02-28T07:46:18;94948.81;;;-3.97;100.00
11487;BME280;10510;47.942;9.442;2023-02-28T07:48:21;94953.94;;;-3.97;100.00
11487;BME280;10510;47.942;9.442;2023-02-28T07:50:21;94956.47;;;-3.97;100.00
11487;BME280;10510;47.942;9.442;2023-02-28T07:52:22;94950.38;;;-3.95;100.00
11487;BME280;10510;47.942;9.442;2023-02-28T07:54:26;94945.19;;;-3.93;100.00
11487;BME280;10510;47.942;9.442;2023-02-28T07:56:26;94956.41;;;-3.96;100.00
11487;BME280;10510;47.942;9.442;2023-02-28T07:58:28;94952.94;;;-3.95;100.00
11487;BME280;10510;47.942;9.442;2023-02-28T08:00:28;94958.84;;;-3.94;100.00
11487;BME280;10510;47.942;9.442;2023-02-28T08:02:29;94951.06;;;-3.91;100.00
11487;BME280;10510;47.942;9.442;2023-02-28T08:04:32;94962.63;;;-3.85;100.00
11487;BME280;10510;47.942;9.442;2023-02-28T08:06:32;94958.34;;;-3.85;100.00
11487;BME280;10510;47.942;9.442;2023-02-28T08:08:32;94964.34;;;-3.86;100.00
11487;BME280;10510;47.942;9.442;2023-02-28T08:10:33;94960.06;;;-3.85;100.00
11487;BME280;10510;47.942;9.442;2023-02-28T08:12:34;94961.63;;;-3.83;100.00
11487;BME280;10510;47.942;9.442;2023-02-28T08:14:34;94960.56;;;-3.79;100.00
11487;BME280;10510;47.942;9.442;2023-02-28T08:16:35;94963.00;;;-3.77;100.00
11487;BME280;10510;47.942;9.442;2023-02-28T08:18:35;94960.38;;;-3.76;100.00
11487;BME280;10510;47.942;9.442;2023-02-28T08:20:36;94961.00;;;-3.72;100.00
11487;BME280;10510;47.942;9.442;2023-02-28T08:22:36;94970.31;;;-3.71;100.00
11487;BME280;10510;47.942;9.442;2023-02-28T08:24:36;94965.13;;;-3.70;100.00
11487;BME280;10510;47.942;9.442;2023-02-28T08:26:36;94959.91;;;-3.68;100.00
11487;BME280;10510;47.942;9.442;2023-02-28T08:28:37;94955.47;;;-3.64;100.00
11487;BME280;10510;47.942;9.442;2023-02-28T08:30:37;94966.31;;;-3.61;100.00
11487;BME280;10510;47.942;9.442;2023-02-28T08:32:38;94964.34;;;-3.56;100.00
11487;BME280;10510;47.942;9.442;2023-02-28T08:34:39;94961.59;;;-3.53;100.00
11487;BME280;10510;47.942;9.442;2023-02-28T08:36:40;94962.41;;;-3.52;100.00
11487;BME280;10510;47.942;9.442;2023-02-28T08:38:41;94961.41;;;-3.50;100.00
11487;BME280;10510;47.942;9.442;2023-02-28T08:40:42;94966.22;;;-3.45;100.00
11487;BME280;10510;47.942;9.442;2023-02-28T08:42:42;94960.06;;;-3.41;100.00
11487;BME280;10510;47.942;9.442;2023-02-28T08:44:43;94966.44;;;-3.34;100.00
11487;BME280;10510;47.942;9.442;2023-02-28T08:46:43;94963.69;;;-3.31;100.00
11487;BME280;10510;47.942;9.442;2023-02-28T08:48:43;94961.94;;;-3.30;100.00
11487;BME280;10510;47.942;9.442;2023-02-28T08:50:44;94977.09;;;-3.27;100.00
11487;BME280;10510;47.942;9.442;2023-02-28T08:52:44;94971.19;;;-3.28;100.00
11487;BME280;10510;47.942;9.442;2023-02-28T08:54:44;94979.59;;;-3.26;100.00
11487;BME280;10510;47.942;9.442;2023-02-28T08:56:45;94974.28;;;-3.23;100.00
11487;BME280;10510;47.942;9.442;2023-02-28T08:58:48;94979.09;;;-3.18;100.00
11487;BME280;10510;47.942;9.442;2023-02-28T09:00:48;94971.19;;;-3.13;100.00
11487;BME280;10510;47.942;9.442;2023-02-28T09:02:49;94976.19;;;-3.12;100.00
11487;BME280;10510;47.942;9.442;2023-02-28T09:04:49;94974.28;;;-3.08;100.00
11487;BME280;10510;47.942;9.442;2023-02-28T09:06:49;94974.28;;;-3.08;100.00
11487;BME280;10510;47.942;9.442;2023-02-28T09:08:50;94972.44;;;-3.06;100.00
11487;BME280;10510;47.942;9.442;2023-02-28T09:10:50;94985.03;;;-3.03;100.00
11487;BME280;10510;47.942;9.442;2023-02-28T09:12:52;94988.44;;;-3.03;100.00
11487;BME280;10510;47.942;9.442;2023-02-28T09:14:53;94998.56;;;-3.01;100.00
11487;BME280;10510;47.942;9.442;2023-02-28T09:16:53;94997.56;;;-2.99;100.00
11487;BME280;10510;47.942;9.442;2023-02-28T09:18:54;94998.19;;;-2.95;100.00
11487;BME280;10510;47.942;9.442;2023-02-28T09:20:55;95001.47;;;-2.93;100.00
11487;BME280;10510;47.942;9.442;2023-02-28T09:22:55;94994.63;;;-2.92;100.00
11487;BME280;10510;47.942;9.442;2023-02-28T09:24:55;95001.31;;;-2.90;100.00
11487;BME280;10510;47.942;9.442;2023-02-28T09:26:56;95001.94;;;-2.86;100.00
11487;BME280;10510;47.942;9.442;2023-02-28T09:28:56;94995.00;;;-2.84;100.00
11487;BME280;10510;47.942;9.442;2023-02-28T09:30:58;94993.16;;;-2.82;100.00
11487;BME280;10510;47.942;9.442;2023-02-28T09:32:59;94992.88;;;-2.78;100.00
11487;BME280;10510;47.942;9.442;2023-02-28T09:34:59;94996.78;;;-2.72;100.00
11487;BME280;10510;47.942;9.442;2023-02-28T09:36:59;95001.84;;;-2.70;100.00
11487;BME280;10510;47.942;9.442;2023-02-28T09:39:00;95004.19;;;-2.67;100.00
11487;BME280;10510;47.942;9.442;2023-02-28T09:41:02;95003.09;;;-2.63;100.00
11487;BME280;10510;47.942;9.442;2023-02-28T09:43:04;95002.81;;;-2.59;100.00
11487;BME280;10510;47.942;9.442;2023-02-28T09:45:17;95000.88;;;-2.55;100.00
11487;BME280;10510;47.942;9.442;2023-02-28T09:47:46;95003.25;;;-2.52;100.00
11487;BME280;10510;47.942;9.442;2023-02-28T09:49:48;94994.44;;;-2.48;100.00
11487;BME280;10510;47.942;9.442;2023-02-28T09:51:59;95007.38;;;-2.49;100.00
11487;BME280;10510;47.942;9.442;2023-02-28T09:54:01;94993.81;;;-2.52;100.00
11487;BME280;10510;47.942;9.442;2023-02-28T09:56:04;94997.94;;;-2.49;100.00
11487;BME280;10510;47.942;9.442;2023-02-28T09:58:18;95000.31;;;-2.46;100.00
11487;BME280;10510;47.942;9.442;2023-02-28T10:02:51;95005.44;;;-2.46;100.00
11487;BME280;10510;47.942;9.442;2023-02-28T10:05:06;95010.53;;;-2.46;100.00
11487;BME280;10510;47.942;9.442;2023-02-28T10:07:30;95016.59;;;-2.47;100.00
11487;BME280;10510;47.942;9.442;2023-02-28T10:09:37;95022.41;;;-2.45;100.00
11487;BME280;10510;47.942;9.442;2023-02-28T10:11:38;95021.31;;;-2.41;100.00
11487;BME280;10510;47.942;9.442;2023-02-28T10:13:53;95021.22;;;-2.39;100.00
11487;BME280;10510;47.942;9.442;2023-02-28T10:16:01;95021.03;;;-2.36;100.00
11487;BME280;10510;47.942;9.442;2023-02-28T10:18:05;95025.13;;;-2.34;100.00
11487;BME280;10510;47.942;9.442;2023-02-28T10:20:13;95016.34;;;-2.30;100.00
11487;BME280;10510;47.942;9.442;2023-02-28T10:22:24;95010.13;;;-2.25;100.00
11487;BME280;10510;47.942;9.442;2023-02-28T10:24:37;95011.38;;;-2.18;100.00
11487;BME280;10510;47.942;9.442;2023-02-28T10:26:40;95026.47;;;-2.14;100.00
11487;BME280;10510;47.942;9.442;2023-02-28T10:28:44;95020.13;;;-2.08;100.00
11487;BME280;10510;47.942;9.442;2023-02-28T10:30:48;95017.56;;;-2.08;100.00
11487;BME280;10510;47.942;9.442;2023-02-28T10:32:51;95026.06;;;-2.08;100.00
11487;BME280;10510;47.942;9.442;2023-02-28T10:37:10;95021.56;;;-2.04;100.00
11487;BME280;10510;47.942;9.442;2023-02-28T10:39:34;95024.53;;;-1.97;100.00
11487;BME280;10510;47.942;9.442;2023-02-28T10:41:42;95033.69;;;-1.93;100.00
11487;BME280;10510;47.942;9.442;2023-02-28T10:43:43;95038.63;;;-1.90;100.00
11487;BME280;10510;47.942;9.442;2023-02-28T10:45:58;95037.63;;;-1.88;100.00
11487;BME280;10510;47.942;9.442;2023-02-28T10:48:05;95039.25;;;-1.87;100.00
11487;BME280;10510;47.942;9.442;2023-02-28T10:50:26;95033.63;;;-1.79;100.00
11487;BME280;10510;47.942;9.442;2023-02-28T10:52:39;95033.44;;;-1.76;100.00
11487;BME280;10510;47.942;9.442;2023-02-28T10:54:39;95036.72;;;-1.74;100.00
11487;BME280;10510;47.942;9.442;2023-02-28T10:56:40;95038.44;;;-1.74;100.00
11487;BME280;10510;47.942;9.442;2023-02-28T11:00:52;95033.84;;;-1.69;100.00
11487;BME280;10510;47.942;9.442;2023-02-28T11:02:52;95032.72;;;-1.65;100.00
11487;BME280;10510;47.942;9.442;2023-02-28T11:04:53;95036.75;;;-1.61;100.00
11487;BME280;10510;47.942;9.442;2023-02-28T11:06:58;95028.84;;;-1.58;100.00
11487;BME280;10510;47.942;9.442;2023-02-28T11:09:02;95032.84;;;-1.54;100.00
11487;BME280;10510;47.942;9.442;2023-02-28T11:11:06;95032.78;;;-1.52;100.00
11487;BME280;10510;47.942;9.442;2023-02-28T11:13:06;95038.50;;;-1.49;100.00
11487;BME280;10510;47.942;9.442;2023-02-28T11:15:22;95042.63;;;-1.46;100.00